Time;durP1;ratioP1;P1;durP2;ratioP2;P2;SDS_P1;SDS_P2;PMS_P1;PMS_P2;Temp;Humidity;BMP_temperature;BMP_pressure;BME280_temperature;BME280_humidity;BME280_pressure;Samples;Min_cycle;Max_cycle;Signal;HPM_P1;HPM_P2
2022/06/19 00:01:03;;;;;;;;;15.75;14.00;;;;;29.70;40.99;100472.31;2413272;28;46560;-85
2022/06/19 00:02:18;;;;;;;;;16.75;13.50;;;;;29.70;41.73;100472.31;2420870;28;45412;-84
2022/06/19 00:03:32;;;;;;;;;16.50;15.50;;;;;29.72;41.76;100483.81;2422605;28;48182;-84
2022/06/19 00:04:46;;;;;;;;;19.25;17.25;;;;;29.70;42.55;100466.91;2411564;28;45267;-84
2022/06/19 00:05:59;;;;;;;;;15.25;15.25;;;;;29.68;42.64;100472.50;2416139;28;46508;-85
2022/06/19 00:07:11;;;;;;;;;15.50;14.25;;;;;29.65;43.32;100484.53;2415165;28;45404;-85
2022/06/19 00:08:21;;;;;;;;;17.75;15.50;;;;;29.62;43.34;100482.19;2428116;28;46065;-88
2022/06/19 08:24:33;;;;;;;;;10.00;8.00;;;;;20.16;60.26;100932.91;2808222;23;46308;-83
2022/06/19 08:25:45;;;;;;;;;8.00;7.00;;;;;20.18;59.84;100921.16;2391290;28;45419;-83
2022/06/19 08:27:13;;;;;;;;;11.75;9.00;;;;;20.19;59.70;100908.66;2393218;28;45340;-84
2022/06/19 08:28:27;;;;;;;;;9.00;7.75;;;;;20.18;59.61;100883.78;2393781;28;45490;-83
2022/06/19 08:29:38;;;;;;;;;7.00;7.00;;;;;20.21;59.63;100877.38;2391965;28;45557;-83
2022/06/19 08:30:48;;;;;;;;;10.50;7.75;;;;;20.20;59.99;100868.53;2393007;28;45600;-83
2022/06/19 08:31:58;;;;;;;;;7.25;7.25;;;;;20.20;59.92;100847.19;2394372;28;45332;-83
2022/06/19 08:33:11;;;;;;;;;8.25;6.50;;;;;20.24;59.40;100837.16;2393998;28;46592;-83
2022/06/19 08:34:21;;;;;;;;;9.00;9.00;;;;;20.20;59.57;100836.50;2396943;28;44799;-84
2022/06/19 08:35:36;;;;;;;;;9.00;7.75;;;;;20.21;59.75;100824.03;2392993;28;46490;-84
2022/06/19 08:36:47;;;;;;;;;9.50;8.00;;;;;20.23;59.56;100801.59;2393444;28;45174;-84
2022/06/19 08:38:04;;;;;;;;;7.50;7.50;;;;;20.24;59.63;100795.31;2393099;28;45605;-84
2022/06/19 08:39:17;;;;;;;;;9.25;8.00;;;;;20.27;59.45;100804.06;2392554;28;45688;-83
2022/06/19 08:40:38;;;;;;;;;9.75;8.00;;;;;20.28;59.65;100806.59;2391925;28;45724;-82
2022/06/19 08:42:22;;;;;;;;;8.00;8.00;;;;;20.28;60.04;100803.06;2392869;28;45313;-82
2022/06/19 08:43:55;;;;;;;;;11.75;8.75;;;;;20.28;59.26;100771.91;2392193;28;46292;-83
2022/06/19 08:45:09;;;;;;;;;9.00;9.00;;;;;20.29;59.24;100743.41;2383526;28;45262;-83
2022/06/19 08:46:44;;;;;;;;;12.25;8.00;;;;;20.28;59.07;100752.38;2391226;28;45390;-84
2022/06/19 08:48:11;;;;;;;;;9.00;8.00;;;;;20.28;58.97;100768.38;2394723;28;44620;-84
2022/06/19 08:49:56;;;;;;;;;10.25;8.25;;;;;20.27;59.15;100791.56;2394622;28;45667;-85
2022/06/19 08:51:17;;;;;;;;;10.00;7.25;;;;;20.27;59.27;100796.03;2393726;28;45500;-85
2022/06/19 08:53:05;;;;;;;;;12.25;9.75;;;;;20.31;59.58;100802.84;2390123;28;45522;-85
2022/06/19 08:54:30;;;;;;;;;8.25;7.00;;;;;20.33;59.02;100798.25;2393752;28;44746;-85
2022/06/19 08:55:46;;;;;;;;;13.25;10.75;;;;;20.35;59.83;100785.63;2394519;28;45308;-86
2022/06/19 08:57:22;;;;;;;;;8.50;7.25;;;;;20.35;60.32;100767.81;2394711;28;45253;-85
2022/06/19 08:58:44;;;;;;;;;5.25;5.25;;;;;20.38;59.24;100769.41;2394459;28;46580;-84
2022/06/19 09:00:16;;;;;;;;;11.75;9.00;;;;;20.40;59.27;100779.94;2387251;28;44597;-84
2022/06/19 09:01:41;;;;;;;;;8.25;7.25;;;;;20.38;58.53;100774.75;2392000;28;45311;-83
2022/06/19 09:03:11;;;;;;;;;11.75;9.75;;;;;20.39;59.25;100778.25;2394612;28;44749;-83
2022/06/19 09:06:20;;;;;;;;;9.00;8.75;;;;;20.39;59.75;100781.78;2394647;28;45367;-83
2022/06/19 09:07:51;;;;;;;;;7.00;4.50;;;;;20.45;59.62;100786.66;2394725;28;45444;-83
2022/06/19 09:09:25;;;;;;;;;7.00;7.00;;;;;20.43;58.89;100812.63;2394086;28;45271;-83
2022/06/19 09:10:38;;;;;;;;;11.00;9.50;;;;;20.42;58.44;100834.94;2393563;28;45249;-85
2022/06/19 09:12:00;;;;;;;;;10.50;10.00;;;;;20.39;58.76;100848.53;2394542;28;45355;-84
2022/06/19 09:13:21;;;;;;;;;10.00;8.00;;;;;20.38;58.62;100873.50;2394152;28;45613;-84
2022/06/19 09:14:36;;;;;;;;;14.00;11.00;;;;;20.39;58.45;100885.03;2394407;28;45274;-84
2022/06/19 09:15:46;;;;;;;;;11.50;10.00;;;;;20.39;59.36;100888.56;2394163;28;45903;-83
2022/06/19 09:17:11;;;;;;;;;15.25;13.25;;;;;20.43;59.45;100898.03;2394501;28;45512;-83
2022/06/19 09:18:22;;;;;;;;;9.25;9.25;;;;;20.50;59.10;100902.91;2394348;28;45408;-82
2022/06/19 09:19:52;;;;;;;;;14.00;12.25;;;;;20.56;59.26;100902.47;2394087;28;45455;-82
2022/06/19 09:21:26;;;;;;;;;11.25;11.25;;;;;20.61;58.89;100905.66;2392771;28;45542;-82
2022/06/19 09:23:00;;;;;;;;;13.75;10.50;;;;;20.67;59.38;100899.88;2393493;28;44636;-82
2022/06/19 09:24:16;;;;;;;;;12.50;12.00;;;;;20.72;58.50;100894.19;2386025;28;46587;-82
2022/06/19 09:25:44;;;;;;;;;11.75;10.50;;;;;20.75;58.60;100895.78;2394041;28;45293;-82
2022/06/19 09:26:58;;;;;;;;;11.75;11.25;;;;;20.79;58.80;100897.28;2394342;28;45675;-85
2022/06/19 09:28:29;;;;;;;;;16.50;13.75;;;;;20.86;58.81;100901.19;2391997;28;45304;-85
2022/06/19 09:29:52;;;;;;;;;12.50;11.75;;;;;20.92;59.23;100902.53;2394155;28;45508;-84
2022/06/19 09:31:07;;;;;;;;;13.50;11.00;;;;;20.95;58.52;100906.78;2389394;28;44861;-84
2022/06/19 09:32:30;;;;;;;;;13.00;10.75;;;;;21.00;58.41;100915.31;2394294;28;45439;-85
2022/06/19 09:33:43;;;;;;;;;14.00;14.00;;;;;21.04;58.81;100911.47;2394751;28;45317;-85
2022/06/19 09:35:16;;;;;;;;;14.25;11.25;;;;;21.08;58.33;100912.97;2402595;28;48208;-84
2022/06/19 09:36:55;;;;;;;;;16.25;14.25;;;;;21.13;58.33;100912.63;2395271;28;45550;-84
2022/06/19 09:38:12;;;;;;;;;14.75;13.75;;;;;21.16;57.28;100908.84;2399346;28;46589;-84
2022/06/19 09:39:32;;;;;;;;;20.00;15.25;;;;;21.16;57.93;100911.53;2397113;28;45232;-84
2022/06/19 09:40:47;;;;;;;;;14.00;13.50;;;;;21.18;57.92;100918.47;2393683;28;45407;-84
2022/06/19 09:42:07;;;;;;;;;14.50;13.25;;;;;21.22;58.40;100917.25;2394378;28;45341;-84
2022/06/19 09:43:24;;;;;;;;;16.75;15.50;;;;;21.25;57.40;100910.81;2394377;28;45284;-84
2022/06/19 09:44:43;;;;;;;;;20.00;17.00;;;;;21.23;57.51;100904.75;2395152;28;45151;-84
2022/06/19 09:45:59;;;;;;;;;21.25;17.75;;;;;21.23;57.92;100904.75;2394133;28;45302;-85
2022/06/19 09:47:18;;;;;;;;;17.75;15.75;;;;;21.20;57.83;100899.63;2394251;28;45236;-85
2022/06/19 09:48:52;;;;;;;;;16.75;13.50;;;;;21.21;58.06;100901.34;2394217;28;46337;-85
2022/06/19 09:50:29;;;;;;;;;18.75;17.00;;;;;21.19;57.37;100897.91;2394239;28;45313;-87
2022/06/19 09:52:06;;;;;;;;;20.75;17.75;;;;;21.19;58.04;100895.25;2384917;28;45674;-86
2022/06/19 09:53:40;;;;;;;;;20.00;17.00;;;;;21.20;58.12;100891.63;2385025;28;45231;-85
2022/06/19 09:54:57;;;;;;;;;16.00;14.75;;;;;21.24;58.87;100895.75;2392801;28;47311;-86
2022/06/19 09:56:18;;;;;;;;;18.75;16.25;;;;;21.28;58.29;100891.88;2390007;28;45390;-85
2022/06/19 09:57:36;;;;;;;;;17.00;15.50;;;;;21.30;58.08;100891.75;2397207;28;47221;-86
2022/06/19 09:59:20;;;;;;;;;20.25;16.25;;;;;21.34;58.14;100907.44;2398965;28;45269;-86
2022/06/19 10:00:34;;;;;;;;;22.75;18.25;;;;;21.36;57.85;100896.63;2396298;28;47447;-88
2022/06/19 10:01:53;;;;;;;;;19.50;18.25;;;;;21.36;58.67;100897.47;2392787;28;45217;-87
2022/06/19 10:03:14;;;;;;;;;18.50;17.75;;;;;21.43;57.92;100905.03;2402550;28;47708;-86
2022/06/19 10:04:38;;;;;;;;;21.00;19.25;;;;;21.46;58.11;100904.78;2398669;28;45239;-87
2022/06/19 10:05:54;;;;;;;;;14.75;13.00;;;;;21.46;57.73;100900.28;2393266;28;46424;-86
2022/06/19 10:07:15;;;;;;;;;23.25;19.25;;;;;21.49;57.86;100891.19;2392140;28;44816;-84
2022/06/19 10:08:31;;;;;;;;;19.25;18.75;;;;;21.51;57.87;100891.09;2389228;28;46787;-85
2022/06/19 10:09:48;;;;;;;;;17.25;16.50;;;;;21.53;57.76;100889.97;2388664;28;45360;-85
2022/06/19 10:11:08;;;;;;;;;21.50;17.25;;;;;21.57;58.42;100888.78;2394678;28;48257;-85
2022/06/19 10:12:32;;;;;;;;;22.50;19.00;;;;;21.58;57.34;100887.78;2384461;28;45358;-86
2022/06/19 10:13:52;;;;;;;;;19.75;17.25;;;;;21.62;57.48;100898.25;2393196;28;48035;-85
2022/06/19 10:15:09;;;;;;;;;25.00;19.50;;;;;21.64;57.28;100877.59;2397986;28;45307;-85
2022/06/19 10:16:26;;;;;;;;;21.00;18.75;;;;;21.67;57.83;100883.56;2393871;28;46187;-84
2022/06/19 10:17:51;;;;;;;;;14.00;14.00;;;;;21.67;57.51;100870.19;2393204;28;45600;-81
2022/06/19 10:19:13;;;;;;;;;23.50;19.00;;;;;21.72;58.08;100866.28;2396804;28;45712;-81
2022/06/19 10:20:34;;;;;;;;;17.75;16.50;;;;;21.75;57.82;100866.91;2405431;28;45282;-80
2022/06/19 10:22:13;;;;;;;;;20.50;18.75;;;;;21.79;58.02;100867.50;2398598;28;46390;-81
2022/06/19 10:23:35;;;;;;;;;18.00;16.25;;;;;21.87;57.21;100864.25;2394234;28;44751;-80
2022/06/19 10:25:19;;;;;;;;;17.50;16.25;;;;;21.94;56.89;100867.28;2393700;28;45306;-80
2022/06/19 10:26:37;;;;;;;;;24.25;19.25;;;;;21.97;57.00;100854.53;2375354;28;45267;-80
2022/06/19 10:28:12;;;;;;;;;24.75;21.25;;;;;22.00;56.76;100856.94;2374605;28;45290;-79
2022/06/19 10:29:34;;;;;;;;;24.75;19.50;;;;;22.02;56.26;100857.69;2371395;28;45226;-81
2022/06/19 10:30:54;;;;;;;;;18.75;16.00;;;;;22.05;56.25;100842.38;2369239;28;45237;-81
2022/06/19 10:32:24;;;;;;;;;16.00;13.25;;;;;22.07;56.78;100840.41;2375657;28;45190;-81
2022/06/19 10:33:52;;;;;;;;;18.25;17.75;;;;;22.12;56.72;100835.53;2380403;28;47388;-81
2022/06/19 10:35:11;;;;;;;;;21.00;18.75;;;;;22.15;56.72;100844.16;2366104;29;45280;-81
2022/06/19 10:36:33;;;;;;;;;20.50;17.00;;;;;22.18;55.89;100839.53;2374875;28;46456;-81
2022/06/19 10:38:03;;;;;;;;;18.75;15.50;;;;;22.23;56.22;100843.53;2374857;28;45469;-81
2022/06/19 10:39:19;;;;;;;;;16.75;16.25;;;;;22.27;56.06;100838.78;2372994;28;46054;-81
2022/06/19 10:41:01;;;;;;;;;17.25;17.25;;;;;22.29;55.30;100836.84;2366746;28;45437;-81
2022/06/19 10:42:17;;;;;;;;;21.00;20.25;;;;;22.34;55.70;100831.09;2374011;28;45437;-81
2022/06/19 10:43:47;;;;;;;;;21.75;19.75;;;;;22.35;55.47;100830.97;2375565;28;45162;-81
2022/06/19 10:45:10;;;;;;;;;19.75;19.50;;;;;22.39;55.53;100833.41;2365828;29;46307;-81
2022/06/19 10:46:24;;;;;;;;;14.00;14.00;;;;;22.43;55.32;100834.84;2374130;28;45508;-81
2022/06/19 10:47:50;;;;;;;;;20.75;14.75;;;;;22.47;55.57;100834.47;2374373;28;46463;-82
2022/06/19 10:49:05;;;;;;;;;21.50;19.25;;;;;22.54;55.04;100836.63;2372892;28;45781;-83
2022/06/19 10:50:39;;;;;;;;;17.50;15.75;;;;;22.56;54.55;100818.63;2374512;28;45290;-82
2022/06/19 10:52:15;;;;;;;;;15.00;13.25;;;;;22.59;54.74;100823.72;2371176;28;45293;-82
2022/06/19 10:53:42;;;;;;;;;21.00;16.25;;;;;22.57;53.91;100834.53;2366796;28;45674;-82
2022/06/19 10:55:09;;;;;;;;;17.00;15.75;;;;;22.57;55.31;100829.19;2368353;28;45439;-82
2022/06/19 10:56:41;;;;;;;;;20.75;19.25;;;;;22.56;54.82;100834.69;2372178;28;46728;-82
2022/06/19 10:58:01;;;;;;;;;13.75;11.00;;;;;22.53;54.56;100843.81;2375323;28;44723;-82
2022/06/19 10:59:13;;;;;;;;;24.75;20.25;;;;;22.53;54.69;100841.13;2374744;28;45552;-83
2022/06/19 11:00:23;;;;;;;;;20.50;18.50;;;;;22.52;54.93;100838.59;2375655;28;45247;-82
2022/06/19 11:05:03;;;;;;;;;21.75;19.50;;;;;22.56;54.54;100848.06;2372914;28;45303;-84
2022/06/19 11:06:18;;;;;;;;;23.75;21.25;;;;;22.58;54.57;100838.94;2372624;28;45307;-83
2022/06/19 11:07:30;;;;;;;;;17.25;16.50;;;;;22.57;54.69;100837.22;2366724;28;45478;-83
2022/06/19 11:08:46;;;;;;;;;21.50;17.00;;;;;22.58;54.39;100838.06;2371944;28;45239;-83
2022/06/19 11:10:03;;;;;;;;;10.75;10.75;;;;;22.56;54.59;100838.22;2373716;28;46541;-83
2022/06/19 11:11:17;;;;;;;;;25.50;22.00;;;;;22.55;54.58;100836.50;2373260;28;44621;-83
2022/06/19 11:12:41;;;;;;;;;18.75;17.75;;;;;22.54;54.92;100829.47;2374027;28;45345;-83
2022/06/19 11:14:07;;;;;;;;;17.25;14.50;;;;;22.55;55.34;100817.75;2370499;28;45402;-83
2022/06/19 11:15:41;;;;;;;;;18.50;16.75;;;;;22.59;54.74;100810.34;2372877;28;46309;-83
2022/06/19 11:17:05;;;;;;;;;29.25;25.75;;;;;22.63;54.94;100817.13;2367220;28;44667;-83
2022/06/19 11:18:20;;;;;;;;;24.25;22.25;;;;;22.65;54.85;100827.69;2371711;28;45330;-83
2022/06/19 11:19:39;;;;;;;;;25.75;22.00;;;;;22.64;54.64;100817.97;2372173;28;44810;-82
2022/06/19 11:21:12;;;;;;;;;28.50;23.50;;;;;22.64;54.37;100834.91;2374080;28;46125;-83
2022/06/19 11:22:40;;;;;;;;;19.25;16.50;;;;;22.65;55.21;100841.94;2372260;28;44669;-82
2022/06/19 11:24:00;;;;;;;;;15.50;15.25;;;;;22.69;55.69;100853.31;2370820;28;45290;-82
2022/06/19 11:25:19;;;;;;;;;17.50;15.50;;;;;22.74;55.15;100851.09;2376425;28;45445;-82
2022/06/19 11:26:40;;;;;;;;;16.00;15.25;;;;;22.76;55.19;100835.72;2392693;28;45461;-82
2022/06/19 11:28:03;;;;;;;;;16.25;14.00;;;;;22.79;55.26;100838.13;2393407;28;45351;-83
2022/06/19 11:29:13;;;;;;;;;21.00;20.00;;;;;22.82;54.69;100837.88;2388073;28;46507;-82
2022/06/19 11:30:30;;;;;;;;;25.25;22.25;;;;;22.82;54.34;100828.97;2384327;28;45289;-83
2022/06/19 11:32:04;;;;;;;;;25.00;23.00;;;;;22.82;55.01;100820.94;2392496;28;45384;-83
2022/06/19 11:33:30;;;;;;;;;22.75;22.00;;;;;22.82;54.77;100816.44;2395812;28;45276;-83
2022/06/19 11:34:53;;;;;;;;;26.50;23.50;;;;;22.86;55.11;100816.19;2392298;28;46457;-83
2022/06/19 11:36:08;;;;;;;;;22.25;18.75;;;;;22.87;55.31;100824.09;2393591;28;45308;-82
2022/06/19 11:37:23;;;;;;;;;24.00;23.00;;;;;22.86;54.91;100817.06;2392666;28;45647;-83
2022/06/19 11:38:33;;;;;;;;;20.50;19.50;;;;;22.90;54.83;100837.25;2387936;28;45226;-83
2022/06/19 11:39:47;;;;;;;;;23.50;22.25;;;;;22.87;53.95;100821.41;2386118;28;46036;-83
2022/06/19 11:40:58;;;;;;;;;14.75;12.50;;;;;22.86;54.45;100824.22;2387276;28;45523;-82
2022/06/19 11:42:20;;;;;;;;;21.75;20.25;;;;;22.85;54.69;100843.97;2390567;28;46252;-83
2022/06/19 11:43:32;;;;;;;;;23.50;20.25;;;;;22.80;54.93;100845.19;2388314;28;45774;-83
2022/06/19 11:44:51;;;;;;;;;25.50;21.75;;;;;22.83;55.01;100830.69;2392132;28;46277;-83
2022/06/19 11:46:06;;;;;;;;;27.25;22.25;;;;;22.81;54.41;100824.63;2393511;28;44743;-83
2022/06/19 11:47:23;;;;;;;;;21.00;18.50;;;;;22.82;55.16;100831.66;2384627;28;45269;-83
2022/06/19 11:48:34;;;;;;;;;24.50;22.75;;;;;22.82;54.82;100821.81;2388611;28;45157;-83
2022/06/19 11:49:44;;;;;;;;;17.00;16.25;;;;;22.84;54.45;100835.06;2392333;28;45375;-83
2022/06/19 11:50:56;;;;;;;;;14.75;14.25;;;;;22.85;54.90;100831.41;2392303;28;45332;-83
2022/06/19 11:52:17;;;;;;;;;18.00;17.75;;;;;22.85;54.76;100831.41;2393266;28;46287;-82
2022/06/19 11:53:41;;;;;;;;;19.75;16.75;;;;;22.87;54.26;100834.81;2390814;28;45372;-83
2022/06/19 11:54:51;;;;;;;;;24.75;22.25;;;;;22.89;54.19;100830.16;2390773;28;45519;-83
2022/06/19 11:56:25;;;;;;;;;24.25;20.25;;;;;22.89;54.14;100834.69;2393240;28;45451;-84
2022/06/19 11:57:36;;;;;;;;;21.25;20.75;;;;;22.86;54.07;100811.69;2389050;28;45387;-83
2022/06/19 11:58:54;;;;;;;;;22.75;20.75;;;;;22.85;54.47;100801.94;2391362;28;45595;-83
2022/06/19 12:00:06;;;;;;;;;24.75;22.00;;;;;22.84;54.05;100802.91;2384113;28;46525;-83
2022/06/19 12:01:20;;;;;;;;;23.00;19.75;;;;;22.84;53.83;100797.56;2389775;28;45385;-84
2022/06/19 12:02:40;;;;;;;;;21.25;17.50;;;;;22.84;53.98;100791.38;2391171;28;46121;-83
2022/06/19 12:03:57;;;;;;;;;23.00;20.75;;;;;22.82;53.55;100784.28;2393417;28;44843;-83
2022/06/19 12:05:26;;;;;;;;;18.00;17.75;;;;;22.82;53.83;100783.44;2391090;28;47943;-83
2022/06/19 12:06:44;;;;;;;;;17.00;16.75;;;;;22.85;54.50;100775.16;2398469;28;45330;-83
2022/06/19 12:08:04;;;;;;;;;19.00;17.25;;;;;22.88;53.99;100782.06;2392389;28;46579;-82
2022/06/19 12:09:39;;;;;;;;;20.50;16.25;;;;;22.90;53.45;100789.00;2393291;28;44679;-84
2022/06/19 12:10:53;;;;;;;;;20.00;17.00;;;;;22.89;53.21;100786.47;2391042;28;45783;-83
2022/06/19 12:12:13;;;;;;;;;18.25;15.75;;;;;22.91;53.59;100780.00;2390552;28;45495;-82
2022/06/19 12:13:28;;;;;;;;;18.00;17.25;;;;;22.92;53.67;100779.00;2390439;28;47381;-83
2022/06/19 12:14:48;;;;;;;;;22.00;16.25;;;;;22.92;53.09;100784.34;2390724;28;45404;-84
2022/06/19 12:16:02;;;;;;;;;17.50;15.00;;;;;22.88;52.85;100766.84;2390524;28;46349;-83
2022/06/19 12:17:33;;;;;;;;;16.00;14.50;;;;;22.88;53.27;100760.63;2392144;28;45174;-82
2022/06/19 12:18:43;;;;;;;;;14.25;13.25;;;;;22.83;52.97;100763.72;2390799;28;46307;-83
2022/06/19 12:20:06;;;;;;;;;15.00;15.00;;;;;22.79;52.83;100770.31;2390269;28;44814;-83
2022/06/19 12:21:46;;;;;;;;;16.00;16.00;;;;;22.72;52.72;100771.81;2388060;28;46742;-83
2022/06/19 12:23:09;;;;;;;;;15.25;14.00;;;;;22.68;53.06;100772.06;2389841;28;45227;-83
2022/06/19 12:24:26;;;;;;;;;15.50;13.25;;;;;22.67;53.45;100785.56;2393339;28;46576;-83
2022/06/19 12:26:09;;;;;;;;;14.25;11.00;;;;;22.67;53.50;100791.75;2391064;28;44849;-83
2022/06/19 12:27:28;;;;;;;;;17.25;13.50;;;;;22.69;52.79;100791.69;2389030;28;45540;-83
2022/06/19 12:28:53;;;;;;;;;8.75;8.00;;;;;22.67;52.43;100791.75;2394834;28;45376;-83
2022/06/19 12:30:09;;;;;;;;;10.25;9.00;;;;;22.66;53.12;100794.59;2394198;28;46588;-82
2022/06/19 12:31:25;;;;;;;;;14.00;13.50;;;;;22.69;52.28;100811.25;2392966;28;45512;-83
2022/06/19 12:32:44;;;;;;;;;16.25;16.00;;;;;22.68;52.50;100801.50;2391292;28;45524;-83
2022/06/19 12:34:03;;;;;;;;;16.50;12.75;;;;;22.70;52.76;100804.94;2399089;28;45161;-83
2022/06/19 12:35:27;;;;;;;;;14.00;12.75;;;;;22.73;53.02;100786.91;2390672;28;45316;-83
2022/06/19 12:36:37;;;;;;;;;11.75;11.75;;;;;22.75;53.15;100796.50;2391444;28;45216;-82
2022/06/19 12:37:48;;;;;;;;;11.75;10.50;;;;;22.81;52.73;100803.19;2390103;28;46105;-83
2022/06/19 12:38:58;;;;;;;;;13.25;12.25;;;;;22.84;53.19;100802.91;2398729;28;45498;-83
2022/06/19 12:40:18;;;;;;;;;16.75;12.75;;;;;22.90;51.87;100810.44;2393212;28;46283;-83
2022/06/19 12:41:31;;;;;;;;;15.50;15.50;;;;;22.92;51.94;100805.81;2387307;28;45536;-83
2022/06/19 12:42:55;;;;;;;;;13.00;12.25;;;;;22.95;52.28;100809.19;2388482;28;46183;-82
2022/06/19 12:44:17;;;;;;;;;12.75;11.25;;;;;22.98;52.42;100808.94;2388666;28;45458;-83
2022/06/19 12:45:44;;;;;;;;;14.00;11.75;;;;;23.00;52.46;100793.56;2387742;28;46668;-82
2022/06/19 12:47:03;;;;;;;;;15.00;11.50;;;;;23.05;52.27;100786.00;2386067;28;45163;-82
2022/06/19 12:48:39;;;;;;;;;9.50;9.50;;;;;23.13;51.80;100788.88;2385788;28;45424;-82
2022/06/19 12:49:52;;;;;;;;;15.00;13.50;;;;;23.22;52.23;100795.25;2390637;28;45459;-82
2022/06/19 12:51:13;;;;;;;;;14.75;13.25;;;;;23.29;52.58;100783.97;2391241;28;48405;-83
2022/06/19 12:52:32;;;;;;;;;15.00;13.00;;;;;23.36;51.78;100780.63;2390883;28;45349;-82
2022/06/19 12:54:13;;;;;;;;;11.25;10.25;;;;;23.46;50.79;100771.78;2387007;28;45361;-82
2022/06/19 12:55:45;;;;;;;;;12.50;11.25;;;;;23.51;51.84;100768.75;2385163;28;44730;-82
2022/06/19 12:57:14;;;;;;;;;11.50;9.75;;;;;23.57;51.85;100766.38;2396461;28;46757;-83
2022/06/19 12:58:39;;;;;;;;;15.25;11.75;;;;;23.59;51.06;100763.53;2392103;28;45384;-82
2022/06/19 13:00:19;;;;;;;;;11.75;11.50;;;;;23.65;50.89;100767.53;2387855;28;45512;-82
2022/06/19 13:02:00;;;;;;;;;11.25;11.25;;;;;23.69;49.84;100768.94;2391255;28;45462;-81
2022/06/19 13:03:11;;;;;;;;;13.75;10.75;;;;;23.73;50.85;100758.78;2394579;28;45454;-82
2022/06/19 13:04:29;;;;;;;;;13.50;11.00;;;;;23.73;50.86;100764.97;2388829;28;45508;-83
2022/06/19 13:06:05;;;;;;;;;9.25;6.25;;;;;23.78;50.67;100768.09;2387155;28;45312;-82
2022/06/19 13:07:34;;;;;;;;;11.25;8.75;;;;;23.84;51.14;100772.09;2386864;28;45302;-82
2022/06/19 13:08:57;;;;;;;;;10.75;8.75;;;;;23.90;51.41;100784.13;2384604;28;45282;-82
2022/06/19 13:10:27;;;;;;;;;17.25;12.00;;;;;23.96;50.58;100775.50;2384550;28;45460;-82
2022/06/19 13:11:54;;;;;;;;;12.00;12.00;;;;;24.01;49.47;100783.97;2375037;28;45450;-83
2022/06/19 13:13:16;;;;;;;;;14.25;13.25;;;;;24.03;50.74;100773.09;2386700;28;45183;-83
2022/06/19 13:14:52;;;;;;;;;13.75;11.50;;;;;24.06;50.47;100764.78;2389611;28;46400;-83
2022/06/19 13:16:14;;;;;;;;;12.25;10.75;;;;;24.08;50.43;100756.56;2386159;28;45266;-83
2022/06/19 13:17:26;;;;;;;;;13.00;11.00;;;;;24.13;51.04;100751.63;2386318;28;45472;-82
2022/06/19 13:18:52;;;;;;;;;11.25;9.25;;;;;24.16;50.75;100754.03;2384733;28;45962;-83
2022/06/19 13:20:22;;;;;;;;;13.75;12.00;;;;;24.22;50.66;100742.75;2391362;28;46087;-84
2022/06/19 13:21:35;;;;;;;;;11.75;11.50;;;;;24.30;50.19;100754.66;2388571;28;45428;-84
2022/06/19 13:23:10;;;;;;;;;15.50;12.00;;;;;24.34;50.00;100748.00;2388594;28;46403;-84
2022/06/19 13:24:47;;;;;;;;;11.50;11.50;;;;;24.35;50.22;100747.00;2386237;28;45311;-82
2022/06/19 13:27:10;;;;;;;;;13.25;12.00;;;;;24.41;50.06;100757.19;2387687;28;45353;-86
2022/06/19 13:27:54;;;;;;;;;13.50;12.25;;;;;24.42;49.77;100745.44;2385531;28;44599;-86
2022/06/19 13:29:13;;;;;;;;;13.25;11.25;;;;;24.46;49.45;100749.56;2393914;28;45234;-88
2022/06/19 13:30:45;;;;;;;;;14.50;12.25;;;;;24.51;49.22;100743.75;2393295;28;45226;-82
2022/06/19 13:32:03;;;;;;;;;12.25;10.50;;;;;24.53;50.18;100733.72;2392703;28;46462;-86
2022/06/19 13:33:37;;;;;;;;;12.25;11.00;;;;;24.58;49.38;100741.34;2394615;28;44866;-85
2022/06/19 13:35:10;;;;;;;;;12.50;12.50;;;;;24.61;49.81;100749.13;2394195;28;45288;-83
2022/06/19 13:37:11;;;;;;;;;11.25;10.00;;;;;24.61;49.62;100736.53;2394043;28;45236;-84
2022/06/19 13:38:34;;;;;;;;;13.75;11.00;;;;;24.64;49.25;100730.03;2368827;28;46358;-84
2022/06/19 13:39:53;;;;;;;;;11.25;9.50;;;;;24.66;49.57;100736.09;2365022;29;45402;-84
2022/06/19 13:41:22;;;;;;;;;12.50;11.25;;;;;24.67;50.04;100729.72;2364313;28;45534;-84
2022/06/19 13:43:01;;;;;;;;;14.75;10.25;;;;;24.71;49.21;100727.63;2374563;28;44751;-84
2022/06/19 13:44:43;;;;;;;;;10.50;9.25;;;;;24.73;49.41;100723.78;2356266;29;45299;-84
2022/06/19 13:46:28;;;;;;;;;10.25;9.25;;;;;24.79;49.38;100721.50;2380483;28;45437;-84
2022/06/19 13:47:46;;;;;;;;;12.00;8.50;;;;;24.83;49.84;100721.06;2385302;28;45625;-84
2022/06/19 13:49:04;;;;;;;;;11.00;11.00;;;;;24.86;49.94;100728.00;2392918;28;45356;-83
2022/06/19 13:50:28;;;;;;;;;13.00;11.50;;;;;24.92;49.04;100726.56;2387232;28;45680;-84
2022/06/19 13:52:19;;;;;;;;;11.00;9.50;;;;;25.00;49.80;100723.16;2393106;28;45536;-84
2022/06/19 13:53:42;;;;;;;;;15.00;11.75;;;;;25.04;49.19;100717.34;2387327;28;46341;-83
2022/06/19 13:55:11;;;;;;;;;12.00;12.00;;;;;25.09;49.45;100706.16;2385861;28;44738;-84
2022/06/19 13:56:40;;;;;;;;;10.00;10.00;;;;;25.12;49.10;100702.31;2393204;28;46355;-85
2022/06/19 13:58:32;;;;;;;;;10.50;9.75;;;;;25.19;47.99;100713.34;2398776;28;45322;-87
2022/06/19 14:00:01;;;;;;;;;12.00;10.50;;;;;25.21;48.09;100701.41;2390348;28;45690;-87
2022/06/19 14:01:37;;;;;;;;;13.25;11.75;;;;;25.23;48.97;100704.84;2393940;28;44672;-85
2022/06/19 14:04:45;;;;;;;;;10.25;10.25;;;;;25.29;48.66;100692.63;2394796;28;45428;-88
2022/06/19 14:05:36;;;;;;;;;6.50;6.25;;;;;25.31;47.81;100685.25;2384652;28;44618;-87
2022/06/19 14:07:12;;;;;;;;;10.50;9.00;;;;;25.32;48.51;100686.09;2389970;28;45433;-86
2022/06/19 14:08:49;;;;;;;;;10.25;10.25;;;;;25.32;48.74;100681.56;2394318;28;44702;-87
2022/06/19 14:10:17;;;;;;;;;11.25;10.75;;;;;25.34;47.62;100687.63;2393903;28;46480;-88
2022/06/19 14:12:03;;;;;;;;;10.75;10.50;;;;;25.31;48.05;100687.94;2394060;28;45472;-87
2022/06/19 14:13:10;;;;;;;;;9.00;9.00;;;;;25.31;48.30;100696.00;2397038;28;45509;-87
2022/06/19 14:14:25;;;;;;;;;11.00;11.00;;;;;25.31;48.72;100687.94;2396610;28;45322;-87
2022/06/19 14:15:41;;;;;;;;;12.25;10.50;;;;;25.33;48.13;100696.72;2393000;28;47897;-88
2022/06/19 14:16:57;;;;;;;;;10.50;9.50;;;;;25.33;47.70;100687.81;2393198;28;45543;-87
2022/06/19 14:18:29;;;;;;;;;10.75;10.75;;;;;25.36;47.92;100691.03;2394165;28;46461;-88
2022/06/19 14:19:45;;;;;;;;;10.50;10.00;;;;;25.39;48.14;100689.88;2394261;28;45186;-88
2022/06/19 14:21:15;;;;;;;;;9.50;8.25;;;;;25.42;48.46;100692.28;2394001;28;46480;-88
2022/06/19 14:22:43;;;;;;;;;9.00;9.00;;;;;25.48;48.06;100688.16;2392551;28;45434;-88
2022/06/19 14:24:03;;;;;;;;;11.00;11.00;;;;;25.53;47.69;100685.00;2392570;28;47284;-87
2022/06/19 14:25:13;;;;;;;;;13.25;12.75;;;;;25.57;48.06;100689.91;2395695;28;45530;-87
2022/06/19 14:26:27;;;;;;;;;11.25;11.25;;;;;25.62;47.81;100700.22;2399507;28;46378;-88
2022/06/19 14:28:25;;;;;;;;;12.25;10.25;;;;;25.68;47.64;100694.22;2393427;28;45281;-88
2022/06/19 14:30:19;;;;;;;;;16.50;9.25;;;;;25.71;47.93;100687.69;2383505;28;46252;-88
2022/06/19 14:31:29;;;;;;;;;15.00;11.25;;;;;25.77;48.06;100684.44;2383926;28;45461;-88
2022/06/19 14:32:43;;;;;;;;;12.75;11.50;;;;;25.81;47.65;100682.28;2393173;28;45235;-87
2022/06/19 14:33:54;;;;;;;;;12.50;11.50;;;;;25.82;48.07;100687.53;2399405;28;44856;-88
2022/06/19 14:35:04;;;;;;;;;10.75;10.50;;;;;25.89;47.35;100681.50;2393483;28;46319;-87
2022/06/19 14:36:17;;;;;;;;;13.75;12.00;;;;;25.91;46.65;100682.19;2394024;28;45166;-86
2022/06/19 14:37:31;;;;;;;;;13.25;13.25;;;;;25.91;46.91;100682.19;2393925;28;46303;-88
2022/06/19 14:38:42;;;;;;;;;13.00;12.00;;;;;25.87;46.62;100672.75;2393377;28;45433;-86
2022/06/19 14:39:58;;;;;;;;;13.00;12.00;;;;;25.85;46.64;100679.13;2391454;28;45337;-87